sensor_id;sensor_type;location;lat;lon;timestamp;P1;durP1;ratioP1;P2;durP2;ratioP2
7575;SDS011;3829;50.798;4.358;2022-08-01T00:00:41;4.20;;;1.73;;
7575;SDS011;3829;50.798;4.358;2022-08-01T00:03:06;5.33;;;1.77;;
7575;SDS011;3829;50.798;4.358;2022-08-01T00:05:32;3.43;;;1.70;;
7575;SDS011;3829;50.798;4.358;2022-08-01T00:07:58;4.53;;;1.83;;
7575;SDS011;3829;50.798;4.358;2022-08-01T00:10:23;6.47;;;1.90;;
7575;SDS011;3829;50.798;4.358;2022-08-01T00:12:49;2.53;;;1.87;;
7575;SDS011;3829;50.798;4.358;2022-08-01T00:15:15;2.77;;;1.80;;
7575;SDS011;3829;50.798;4.358;2022-08-01T00:17:42;4.67;;;2.17;;
7575;SDS011;3829;50.798;4.358;2022-08-01T00:20:10;5.40;;;2.07;;
7575;SDS011;3829;50.798;4.358;2022-08-01T00:22:37;6.17;;;1.90;;
7575;SDS011;3829;50.798;4.358;2022-08-01T00:25:03;4.23;;;1.67;;
7575;SDS011;3829;50.798;4.358;2022-08-01T00:27:30;5.70;;;1.90;;
7575;SDS011;3829;50.798;4.358;2022-08-01T00:29:56;6.33;;;1.80;;
7575;SDS011;3829;50.798;4.358;2022-08-01T00:32:22;5.97;;;2.00;;
7575;SDS011;3829;50.798;4.358;2022-08-01T00:34:48;4.00;;;1.80;;
7575;SDS011;3829;50.798;4.358;2022-08-01T00:37:13;3.63;;;1.80;;
7575;SDS011;3829;50.798;4.358;2022-08-01T00:39:39;3.07;;;1.80;;
7575;SDS011;3829;50.798;4.358;2022-08-01T00:42:08;6.57;;;1.90;;
7575;SDS011;3829;50.798;4.358;2022-08-01T00:44:35;4.13;;;1.90;;
7575;SDS011;3829;50.798;4.358;2022-08-01T00:47:02;4.70;;;1.83;;
7575;SDS011;3829;50.798;4.358;2022-08-01T00:49:28;4.73;;;2.10;;
7575;SDS011;3829;50.798;4.358;2022-08-01T00:51:54;4.47;;;2.10;;
7575;SDS011;3829;50.798;4.358;2022-08-01T00:54:23;5.87;;;2.00;;
7575;SDS011;3829;50.798;4.358;2022-08-01T00:56:50;7.07;;;2.83;;
7575;SDS011;3829;50.798;4.358;2022-08-01T00:59:21;3.07;;;2.40;;
7575;SDS011;3829;50.798;4.358;2022-08-01T01:01:48;3.20;;;2.23;;
7575;SDS011;3829;50.798;4.358;2022-08-01T01:04:14;5.50;;;2.03;;
7575;SDS011;3829;50.798;4.358;2022-08-01T01:15:55;4.57;;;2.20;;
7575;SDS011;3829;50.798;4.358;2022-08-01T01:18:12;4.37;;;2.10;;
7575;SDS011;3829;50.798;4.358;2022-08-01T01:20:44;5.17;;;2.30;;
7575;SDS011;3829;50.798;4.358;2022-08-01T01:26:04;2.57;;;2.10;;
7575;SDS011;3829;50.798;4.358;2022-08-01T01:28:57;4.63;;;2.77;;
7575;SDS011;3829;50.798;4.358;2022-08-01T01:31:49;3.97;;;2.83;;
7575;SDS011;3829;50.798;4.358;2022-08-01T01:34:18;6.23;;;2.70;;
7575;SDS011;3829;50.798;4.358;2022-08-01T01:36:46;8.43;;;2.97;;
7575;SDS011;3829;50.798;4.358;2022-08-01T01:39:14;5.97;;;3.60;;
7575;SDS011;3829;50.798;4.358;2022-08-01T01:41:41;10.80;;;5.17;;
7575;SDS011;3829;50.798;4.358;2022-08-01T01:44:09;12.50;;;4.80;;
7575;SDS011;3829;50.798;4.358;2022-08-01T01:46:36;11.27;;;5.03;;
7575;SDS011;3829;50.798;4.358;2022-08-01T01:49:02;15.60;;;6.50;;
7575;SDS011;3829;50.798;4.358;2022-08-01T01:51:29;15.30;;;6.97;;
7575;SDS011;3829;50.798;4.358;2022-08-01T01:53:56;15.63;;;6.87;;
7575;SDS011;3829;50.798;4.358;2022-08-01T01:56:24;16.50;;;7.70;;
7575;SDS011;3829;50.798;4.358;2022-08-01T01:58:52;16.97;;;7.63;;
7575;SDS011;3829;50.798;4.358;2022-08-01T02:01:23;18.47;;;8.10;;
7575;SDS011;3829;50.798;4.358;2022-08-01T02:03:51;17.63;;;8.30;;
7575;SDS011;3829;50.798;4.358;2022-08-01T02:06:18;15.63;;;8.10;;
7575;SDS011;3829;50.798;4.358;2022-08-01T02:08:45;18.10;;;7.87;;
7575;SDS011;3829;50.798;4.358;2022-08-01T02:11:12;15.67;;;8.17;;
7575;SDS011;3829;50.798;4.358;2022-08-01T02:13:44;19.63;;;8.50;;
7575;SDS011;3829;50.798;4.358;2022-08-01T02:16:14;17.97;;;9.27;;
7575;SDS011;3829;50.798;4.358;2022-08-01T02:18:41;17.17;;;8.90;;
7575;SDS011;3829;50.798;4.358;2022-08-01T02:21:09;20.50;;;8.73;;
7575;SDS011;3829;50.798;4.358;2022-08-01T02:23:39;16.33;;;7.87;;
7575;SDS011;3829;50.798;4.358;2022-08-01T02:26:07;16.10;;;8.17;;
7575;SDS011;3829;50.798;4.358;2022-08-01T02:29:00;15.23;;;8.20;;
7575;SDS011;3829;50.798;4.358;2022-08-01T02:31:25;16.43;;;8.40;;
7575;SDS011;3829;50.798;4.358;2022-08-01T02:33:57;11.50;;;7.57;;
7575;SDS011;3829;50.798;4.358;2022-08-01T02:36:27;14.00;;;7.87;;
7575;SDS011;3829;50.798;4.358;2022-08-01T02:38:55;18.23;;;9.50;;
7575;SDS011;3829;50.798;4.358;2022-08-01T02:41:24;18.00;;;10.23;;
7575;SDS011;3829;50.798;4.358;2022-08-01T02:43:52;19.30;;;9.27;;
7575;SDS011;3829;50.798;4.358;2022-08-01T02:49:21;21.77;;;10.90;;
7575;SDS011;3829;50.798;4.358;2022-08-01T02:51:51;17.23;;;9.77;;
7575;SDS011;3829;50.798;4.358;2022-08-01T02:54:19;20.70;;;9.70;;
7575;SDS011;3829;50.798;4.358;2022-08-01T02:56:47;18.30;;;9.60;;
7575;SDS011;3829;50.798;4.358;2022-08-01T02:59:16;19.47;;;9.83;;
7575;SDS011;3829;50.798;4.358;2022-08-01T03:01:44;18.47;;;9.40;;
7575;SDS011;3829;50.798;4.358;2022-08-01T03:04:11;17.50;;;9.10;;
7575;SDS011;3829;50.798;4.358;2022-08-01T03:06:39;16.90;;;8.33;;
7575;SDS011;3829;50.798;4.358;2022-08-01T03:09:05;14.57;;;8.47;;
7575;SDS011;3829;50.798;4.358;2022-08-01T03:11:31;14.40;;;7.33;;
7575;SDS011;3829;50.798;4.358;2022-08-01T03:14:00;14.67;;;8.10;;
7575;SDS011;3829;50.798;4.358;2022-08-01T03:16:30;16.63;;;7.33;;
7575;SDS011;3829;50.798;4.358;2022-08-01T03:18:57;13.50;;;7.70;;
7575;SDS011;3829;50.798;4.358;2022-08-01T03:21:25;12.43;;;6.50;;
7575;SDS011;3829;50.798;4.358;2022-08-01T03:23:52;11.53;;;6.67;;
7575;SDS011;3829;50.798;4.358;2022-08-01T03:26:22;12.17;;;7.10;;
7575;SDS011;3829;50.798;4.358;2022-08-01T03:28:55;10.07;;;6.40;;
7575;SDS011;3829;50.798;4.358;2022-08-01T03:31:24;17.77;;;6.57;;
7575;SDS011;3829;50.798;4.358;2022-08-01T03:33:50;14.30;;;7.73;;
7575;SDS011;3829;50.798;4.358;2022-08-01T03:36:16;16.60;;;8.77;;
7575;SDS011;3829;50.798;4.358;2022-08-01T03:38:49;17.00;;;8.50;;
7575;SDS011;3829;50.798;4.358;2022-08-01T03:41:18;14.00;;;7.03;;
7575;SDS011;3829;50.798;4.358;2022-08-01T03:43:52;13.90;;;8.27;;
7575;SDS011;3829;50.798;4.358;2022-08-01T03:46:22;24.00;;;9.87;;
7575;SDS011;3829;50.798;4.358;2022-08-01T03:49:00;16.43;;;8.73;;
7575;SDS011;3829;50.798;4.358;2022-08-01T03:51:31;18.83;;;9.67;;
7575;SDS011;3829;50.798;4.358;2022-08-01T03:53:58;18.60;;;9.57;;
7575;SDS011;3829;50.798;4.358;2022-08-01T03:56:26;18.50;;;9.50;;
7575;SDS011;3829;50.798;4.358;2022-08-01T03:58:55;20.50;;;9.23;;
7575;SDS011;3829;50.798;4.358;2022-08-01T04:01:22;17.63;;;10.10;;
7575;SDS011;3829;50.798;4.358;2022-08-01T04:03:48;19.23;;;10.80;;
7575;SDS011;3829;50.798;4.358;2022-08-01T04:06:14;21.03;;;10.00;;
7575;SDS011;3829;50.798;4.358;2022-08-01T04:08:40;20.67;;;10.47;;
7575;SDS011;3829;50.798;4.358;2022-08-01T04:11:07;18.70;;;11.03;;
7575;SDS011;3829;50.798;4.358;2022-08-01T04:13:33;17.57;;;10.73;;
7575;SDS011;3829;50.798;4.358;2022-08-01T04:15:59;25.67;;;12.30;;
7575;SDS011;3829;50.798;4.358;2022-08-01T04:18:25;22.57;;;11.63;;
7575;SDS011;3829;50.798;4.358;2022-08-01T04:20:51;26.43;;;13.03;;
7575;SDS011;3829;50.798;4.358;2022-08-01T04:23:17;24.40;;;13.27;;
7575;SDS011;3829;50.798;4.358;2022-08-01T04:25:47;22.57;;;12.57;;
7575;SDS011;3829;50.798;4.358;2022-08-01T04:28:15;20.07;;;11.83;;
7575;SDS011;3829;50.798;4.358;2022-08-01T04:30:42;20.87;;;11.90;;
7575;SDS011;3829;50.798;4.358;2022-08-01T04:33:11;23.17;;;11.90;;
7575;SDS011;3829;50.798;4.358;2022-08-01T04:35:41;20.13;;;11.50;;
7575;SDS011;3829;50.798;4.358;2022-08-01T04:38:10;19.90;;;11.37;;
7575;SDS011;3829;50.798;4.358;2022-08-01T04:40:38;21.00;;;10.83;;
7575;SDS011;3829;50.798;4.358;2022-08-01T04:43:05;19.50;;;10.97;;
7575;SDS011;3829;50.798;4.358;2022-08-01T04:45:32;16.00;;;11.70;;
7575;SDS011;3829;50.798;4.358;2022-08-01T04:47:59;17.30;;;11.60;;
7575;SDS011;3829;50.798;4.358;2022-08-01T04:50:25;17.97;;;10.53;;
7575;SDS011;3829;50.798;4.358;2022-08-01T04:52:51;17.60;;;11.30;;
7575;SDS011;3829;50.798;4.358;2022-08-01T04:55:20;20.63;;;12.13;;
7575;SDS011;3829;50.798;4.358;2022-08-01T04:57:46;16.63;;;11.90;;
7575;SDS011;3829;50.798;4.358;2022-08-01T05:00:12;22.17;;;13.53;;
7575;SDS011;3829;50.798;4.358;2022-08-01T05:02:39;20.47;;;12.10;;
7575;SDS011;3829;50.798;4.358;2022-08-01T05:05:04;25.07;;;14.23;;
7575;SDS011;3829;50.798;4.358;2022-08-01T05:07:31;21.43;;;14.60;;
7575;SDS011;3829;50.798;4.358;2022-08-01T05:09:58;21.83;;;14.70;;
7575;SDS011;3829;50.798;4.358;2022-08-01T05:12:23;23.23;;;14.50;;
7575;SDS011;3829;50.798;4.358;2022-08-01T05:14:49;30.53;;;15.60;;
7575;SDS011;3829;50.798;4.358;2022-08-01T05:17:15;29.80;;;16.27;;
7575;SDS011;3829;50.798;4.358;2022-08-01T05:19:41;34.60;;;16.07;;
7575;SDS011;3829;50.798;4.358;2022-08-01T05:22:08;25.80;;;14.97;;
7575;SDS011;3829;50.798;4.358;2022-08-01T05:24:35;30.60;;;15.30;;
7575;SDS011;3829;50.798;4.358;2022-08-01T05:27:03;23.03;;;14.93;;
7575;SDS011;3829;50.798;4.358;2022-08-01T05:29:29;22.07;;;15.03;;
7575;SDS011;3829;50.798;4.358;2022-08-01T05:31:55;28.17;;;14.33;;
7575;SDS011;3829;50.798;4.358;2022-08-01T05:34:22;24.57;;;14.90;;
7575;SDS011;3829;50.798;4.358;2022-08-01T05:36:47;23.47;;;13.83;;
7575;SDS011;3829;50.798;4.358;2022-08-01T05:39:13;20.80;;;13.63;;
7575;SDS011;3829;50.798;4.358;2022-08-01T05:41:39;22.37;;;13.33;;
7575;SDS011;3829;50.798;4.358;2022-08-01T05:44:05;24.37;;;14.20;;
7575;SDS011;3829;50.798;4.358;2022-08-01T05:46:32;24.10;;;14.40;;
7575;SDS011;3829;50.798;4.358;2022-08-01T05:48:59;20.17;;;13.57;;
7575;SDS011;3829;50.798;4.358;2022-08-01T05:51:25;18.13;;;11.97;;
7575;SDS011;3829;50.798;4.358;2022-08-01T05:53:51;23.63;;;13.87;;
7575;SDS011;3829;50.798;4.358;2022-08-01T05:56:17;19.93;;;12.13;;
7575;SDS011;3829;50.798;4.358;2022-08-01T05:58:43;20.47;;;11.27;;
7575;SDS011;3829;50.798;4.358;2022-08-01T06:01:08;21.20;;;11.30;;
7575;SDS011;3829;50.798;4.358;2022-08-01T06:03:34;14.97;;;10.77;;
7575;SDS011;3829;50.798;4.358;2022-08-01T06:06:00;15.03;;;9.70;;
7575;SDS011;3829;50.798;4.358;2022-08-01T06:08:26;15.93;;;9.63;;
7575;SDS011;3829;50.798;4.358;2022-08-01T06:10:52;12.90;;;9.20;;
7575;SDS011;3829;50.798;4.358;2022-08-01T06:13:18;13.47;;;9.03;;
7575;SDS011;3829;50.798;4.358;2022-08-01T06:15:44;14.60;;;9.67;;
7575;SDS011;3829;50.798;4.358;2022-08-01T06:18:10;13.70;;;9.37;;
7575;SDS011;3829;50.798;4.358;2022-08-01T06:20:36;11.40;;;8.30;;
7575;SDS011;3829;50.798;4.358;2022-08-01T06:23:02;12.93;;;7.80;;
7575;SDS011;3829;50.798;4.358;2022-08-01T06:25:28;10.23;;;8.03;;
7575;SDS011;3829;50.798;4.358;2022-08-01T06:27:53;11.33;;;8.00;;
7575;SDS011;3829;50.798;4.358;2022-08-01T06:30:19;11.83;;;7.60;;
7575;SDS011;3829;50.798;4.358;2022-08-01T06:32:45;9.23;;;7.23;;
7575;SDS011;3829;50.798;4.358;2022-08-01T06:35:11;11.00;;;8.10;;
7575;SDS011;3829;50.798;4.358;2022-08-01T06:37:36;11.53;;;7.70;;
7575;SDS011;3829;50.798;4.358;2022-08-01T06:40:06;8.27;;;6.83;;
7575;SDS011;3829;50.798;4.358;2022-08-01T06:42:34;8.30;;;6.10;;
7575;SDS011;3829;50.798;4.358;2022-08-01T06:45:03;9.00;;;6.70;;
7575;SDS011;3829;50.798;4.358;2022-08-01T06:47:30;9.97;;;5.93;;
7575;SDS011;3829;50.798;4.358;2022-08-01T06:49:56;5.73;;;5.00;;
7575;SDS011;3829;50.798;4.358;2022-08-01T06:52:22;6.63;;;5.93;;
7575;SDS011;3829;50.798;4.358;2022-08-01T06:54:48;7.80;;;5.57;;
7575;SDS011;3829;50.798;4.358;2022-08-01T06:57:14;8.07;;;5.10;;
7575;SDS011;3829;50.798;4.358;2022-08-01T06:59:40;7.47;;;5.30;;
7575;SDS011;3829;50.798;4.358;2022-08-01T07:02:06;7.53;;;4.93;;
7575;SDS011;3829;50.798;4.358;2022-08-01T07:04:32;8.23;;;5.93;;
7575;SDS011;3829;50.798;4.358;2022-08-01T07:06:59;10.80;;;6.30;;
7575;SDS011;3829;50.798;4.358;2022-08-01T07:09:25;10.33;;;5.63;;
7575;SDS011;3829;50.798;4.358;2022-08-01T07:11:51;7.80;;;4.97;;
7575;SDS011;3829;50.798;4.358;2022-08-01T07:14:19;7.07;;;5.00;;
7575;SDS011;3829;50.798;4.358;2022-08-01T07:16:45;6.30;;;4.40;;
7575;SDS011;3829;50.798;4.358;2022-08-01T07:19:11;6.97;;;4.83;;
7575;SDS011;3829;50.798;4.358;2022-08-01T07:21:37;7.80;;;5.00;;
7575;SDS011;3829;50.798;4.358;2022-08-01T07:24:04;8.33;;;5.23;;
7575;SDS011;3829;50.798;4.358;2022-08-01T07:26:30;12.03;;;5.57;;
7575;SDS011;3829;50.798;4.358;2022-08-01T07:28:56;15.13;;;5.67;;
7575;SDS011;3829;50.798;4.358;2022-08-01T07:31:23;8.87;;;4.10;;
7575;SDS011;3829;50.798;4.358;2022-08-01T07:33:49;6.20;;;4.30;;
7575;SDS011;3829;50.798;4.358;2022-08-01T07:36:15;4.73;;;3.63;;
7575;SDS011;3829;50.798;4.358;2022-08-01T07:38:41;5.73;;;4.40;;
7575;SDS011;3829;50.798;4.358;2022-08-01T07:41:07;9.33;;;4.23;;
7575;SDS011;3829;50.798;4.358;2022-08-01T07:43:33;10.20;;;5.10;;
7575;SDS011;3829;50.798;4.358;2022-08-01T07:46:00;6.67;;;4.70;;
7575;SDS011;3829;50.798;4.358;2022-08-01T07:48:29;3.97;;;3.57;;
7575;SDS011;3829;50.798;4.358;2022-08-01T07:50:55;5.83;;;3.70;;
7575;SDS011;3829;50.798;4.358;2022-08-01T07:53:21;3.47;;;2.80;;
7575;SDS011;3829;50.798;4.358;2022-08-01T07:55:47;3.43;;;3.00;;
7575;SDS011;3829;50.798;4.358;2022-08-01T07:58:13;5.20;;;3.00;;
7575;SDS011;3829;50.798;4.358;2022-08-01T08:00:39;3.47;;;3.17;;
7575;SDS011;3829;50.798;4.358;2022-08-01T08:03:05;7.03;;;3.70;;
7575;SDS011;3829;50.798;4.358;2022-08-01T08:05:31;4.53;;;4.20;;
7575;SDS011;3829;50.798;4.358;2022-08-01T08:08:06;6.70;;;5.30;;
7575;SDS011;3829;50.798;4.358;2022-08-01T08:10:33;5.73;;;4.23;;
7575;SDS011;3829;50.798;4.358;2022-08-01T08:12:59;6.77;;;3.80;;
7575;SDS011;3829;50.798;4.358;2022-08-01T08:15:26;3.77;;;3.47;;
7575;SDS011;3829;50.798;4.358;2022-08-01T08:17:52;4.97;;;3.57;;
7575;SDS011;3829;50.798;4.358;2022-08-01T08:20:17;3.53;;;3.23;;
7575;SDS011;3829;50.798;4.358;2022-08-01T08:22:43;3.87;;;2.90;;
7575;SDS011;3829;50.798;4.358;2022-08-01T08:25:08;3.07;;;2.70;;
7575;SDS011;3829;50.798;4.358;2022-08-01T08:27:37;4.93;;;2.63;;
7575;SDS011;3829;50.798;4.358;2022-08-01T08:30:04;7.13;;;3.17;;
7575;SDS011;3829;50.798;4.358;2022-08-01T08:32:32;3.00;;;2.70;;
7575;SDS011;3829;50.798;4.358;2022-08-01T08:34:59;3.57;;;2.37;;
7575;SDS011;3829;50.798;4.358;2022-08-01T08:37:25;3.00;;;2.30;;
7575;SDS011;3829;50.798;4.358;2022-08-01T08:39:50;5.80;;;2.57;;
7575;SDS011;3829;50.798;4.358;2022-08-01T08:42:16;2.10;;;1.90;;
7575;SDS011;3829;50.798;4.358;2022-08-01T08:44:43;2.13;;;1.83;;
7575;SDS011;3829;50.798;4.358;2022-08-01T08:47:09;3.60;;;1.80;;
7575;SDS011;3829;50.798;4.358;2022-08-01T08:49:37;2.17;;;1.97;;
7575;SDS011;3829;50.798;4.358;2022-08-01T08:52:03;2.90;;;1.53;;
7575;SDS011;3829;50.798;4.358;2022-08-01T08:54:30;3.60;;;2.20;;
7575;SDS011;3829;50.798;4.358;2022-08-01T08:56:58;2.37;;;1.80;;
7575;SDS011;3829;50.798;4.358;2022-08-01T08:59:24;1.77;;;1.63;;
7575;SDS011;3829;50.798;4.358;2022-08-01T09:01:51;3.40;;;1.80;;
7575;SDS011;3829;50.798;4.358;2022-08-01T09:04:17;2.20;;;1.73;;
7575;SDS011;3829;50.798;4.358;2022-08-01T09:06:46;1.77;;;1.30;;
7575;SDS011;3829;50.798;4.358;2022-08-01T09:09:14;3.33;;;2.00;;
7575;SDS011;3829;50.798;4.358;2022-08-01T09:11:40;9.07;;;2.00;;
7575;SDS011;3829;50.798;4.358;2022-08-01T09:14:13;8.47;;;2.37;;
7575;SDS011;3829;50.798;4.358;2022-08-01T09:16:41;3.57;;;1.33;;
7575;SDS011;3829;50.798;4.358;2022-08-01T09:21:39;11.77;;;4.00;;
7575;SDS011;3829;50.798;4.358;2022-08-01T09:24:13;8.90;;;2.70;;
7575;SDS011;3829;50.798;4.358;2022-08-01T09:26:40;5.07;;;2.87;;
7575;SDS011;3829;50.798;4.358;2022-08-01T09:29:07;3.13;;;2.37;;
7575;SDS011;3829;50.798;4.358;2022-08-01T09:31:42;5.07;;;2.53;;
7575;SDS011;3829;50.798;4.358;2022-08-01T09:34:09;2.57;;;2.33;;
7575;SDS011;3829;50.798;4.358;2022-08-01T09:36:46;3.03;;;2.10;;
7575;SDS011;3829;50.798;4.358;2022-08-01T09:39:17;3.93;;;2.60;;
7575;SDS011;3829;50.798;4.358;2022-08-01T09:41:44;5.33;;;2.17;;
7575;SDS011;3829;50.798;4.358;2022-08-01T09:44:10;2.40;;;2.20;;
7575;SDS011;3829;50.798;4.358;2022-08-01T09:46:45;4.10;;;1.70;;
7575;SDS011;3829;50.798;4.358;2022-08-01T09:49:26;1.93;;;1.80;;
7575;SDS011;3829;50.798;4.358;2022-08-01T09:51:54;3.20;;;1.90;;
7575;SDS011;3829;50.798;4.358;2022-08-01T09:54:30;2.47;;;1.90;;
7575;SDS011;3829;50.798;4.358;2022-08-01T09:59:55;4.20;;;2.13;;
7575;SDS011;3829;50.798;4.358;2022-08-01T10:05:02;2.40;;;2.20;;
7575;SDS011;3829;50.798;4.358;2022-08-01T10:07:31;2.60;;;2.40;;
7575;SDS011;3829;50.798;4.358;2022-08-01T10:10:14;4.40;;;2.50;;
7575;SDS011;3829;50.798;4.358;2022-08-01T10:12:41;3.50;;;2.50;;
7575;SDS011;3829;50.798;4.358;2022-08-01T10:15:08;3.83;;;2.37;;
7575;SDS011;3829;50.798;4.358;2022-08-01T10:17:34;2.63;;;2.20;;
7575;SDS011;3829;50.798;4.358;2022-08-01T10:20:04;2.27;;;2.07;;
7575;SDS011;3829;50.798;4.358;2022-08-01T10:22:32;2.27;;;1.70;;
7575;SDS011;3829;50.798;4.358;2022-08-01T10:25:01;2.13;;;1.97;;
7575;SDS011;3829;50.798;4.358;2022-08-01T10:27:29;2.33;;;1.80;;
7575;SDS011;3829;50.798;4.358;2022-08-01T10:30:01;2.03;;;1.83;;
7575;SDS011;3829;50.798;4.358;2022-08-01T10:32:29;4.27;;;1.60;;
7575;SDS011;3829;50.798;4.358;2022-08-01T10:34:56;3.13;;;1.23;;
7575;SDS011;3829;50.798;4.358;2022-08-01T10:37:23;2.03;;;1.30;;
7575;SDS011;3829;50.798;4.358;2022-08-01T10:39:53;1.37;;;1.23;;
7575;SDS011;3829;50.798;4.358;2022-08-01T10:42:23;2.07;;;1.27;;
7575;SDS011;3829;50.798;4.358;2022-08-01T10:44:49;1.67;;;1.10;;
7575;SDS011;3829;50.798;4.358;2022-08-01T10:50:17;4.27;;;1.20;;
7575;SDS011;3829;50.798;4.358;2022-08-01T10:55:48;1.13;;;1.00;;
7575;SDS011;3829;50.798;4.358;2022-08-01T10:58:29;1.50;;;1.10;;
7575;SDS011;3829;50.798;4.358;2022-08-01T11:09:01;6.90;;;1.40;;
7575;SDS011;3829;50.798;4.358;2022-08-01T11:14:33;2.50;;;1.10;;
7575;SDS011;3829;50.798;4.358;2022-08-01T11:20:11;1.20;;;1.00;;
7575;SDS011;3829;50.798;4.358;2022-08-01T11:25:26;2.03;;;1.17;;
7575;SDS011;3829;50.798;4.358;2022-08-01T11:30:43;1.20;;;1.10;;
7575;SDS011;3829;50.798;4.358;2022-08-01T11:33:10;2.17;;;0.90;;
7575;SDS011;3829;50.798;4.358;2022-08-01T11:35:37;1.30;;;1.20;;
7575;SDS011;3829;50.798;4.358;2022-08-01T11:38:24;1.13;;;0.90;;
7575;SDS011;3829;50.798;4.358;2022-08-01T11:41:12;5.67;;;1.00;;
7575;SDS011;3829;50.798;4.358;2022-08-01T11:54:39;2.80;;;1.00;;
7575;SDS011;3829;50.798;4.358;2022-08-01T11:57:14;2.43;;;0.90;;
7575;SDS011;3829;50.798;4.358;2022-08-01T11:59:50;2.47;;;0.90;;
7575;SDS011;3829;50.798;4.358;2022-08-01T12:02:26;2.07;;;0.90;;
7575;SDS011;3829;50.798;4.358;2022-08-01T12:07:26;1.60;;;0.87;;
7575;SDS011;3829;50.798;4.358;2022-08-01T12:09:58;2.10;;;0.67;;
7575;SDS011;3829;50.798;4.358;2022-08-01T12:12:31;3.43;;;1.00;;
7575;SDS011;3829;50.798;4.358;2022-08-01T12:15:00;1.23;;;0.70;;
7575;SDS011;3829;50.798;4.358;2022-08-01T12:17:38;3.63;;;0.90;;
7575;SDS011;3829;50.798;4.358;2022-08-01T12:20:11;1.37;;;0.80;;
7575;SDS011;3829;50.798;4.358;2022-08-01T12:22:39;1.90;;;1.13;;
7575;SDS011;3829;50.798;4.358;2022-08-01T12:25:07;2.37;;;1.00;;
7575;SDS011;3829;50.798;4.358;2022-08-01T12:27:40;4.03;;;1.00;;
7575;SDS011;3829;50.798;4.358;2022-08-01T12:30:11;1.40;;;0.87;;
7575;SDS011;3829;50.798;4.358;2022-08-01T12:32:43;1.07;;;0.60;;
7575;SDS011;3829;50.798;4.358;2022-08-01T12:35:14;1.47;;;1.00;;
7575;SDS011;3829;50.798;4.358;2022-08-01T12:37:44;8.60;;;2.23;;
7575;SDS011;3829;50.798;4.358;2022-08-01T12:42:41;2.20;;;1.40;;
7575;SDS011;3829;50.798;4.358;2022-08-01T12:45:10;1.93;;;0.97;;
7575;SDS011;3829;50.798;4.358;2022-08-01T12:47:38;16.23;;;2.17;;
7575;SDS011;3829;50.798;4.358;2022-08-01T12:50:06;6.30;;;1.63;;
7575;SDS011;3829;50.798;4.358;2022-08-01T12:52:40;3.50;;;1.07;;
7575;SDS011;3829;50.798;4.358;2022-08-01T12:55:11;2.20;;;1.00;;
7575;SDS011;3829;50.798;4.358;2022-08-01T12:57:46;2.00;;;1.00;;
7575;SDS011;3829;50.798;4.358;2022-08-01T13:00:22;1.97;;;1.10;;
7575;SDS011;3829;50.798;4.358;2022-08-01T13:03:05;1.93;;;1.10;;
7575;SDS011;3829;50.798;4.358;2022-08-01T13:05:43;2.10;;;1.00;;
7575;SDS011;3829;50.798;4.358;2022-08-01T13:11:03;2.43;;;0.90;;
7575;SDS011;3829;50.798;4.358;2022-08-01T13:13:41;1.23;;;0.87;;
7575;SDS011;3829;50.798;4.358;2022-08-01T13:16:12;2.43;;;1.00;;
7575;SDS011;3829;50.798;4.358;2022-08-01T13:18:39;2.33;;;1.07;;
7575;SDS011;3829;50.798;4.358;2022-08-01T13:21:15;1.07;;;0.87;;
7575;SDS011;3829;50.798;4.358;2022-08-01T13:29:15;2.00;;;0.97;;
7575;SDS011;3829;50.798;4.358;2022-08-01T13:32:16;1.77;;;0.90;;
7575;SDS011;3829;50.798;4.358;2022-08-01T13:34:43;3.57;;;1.00;;
7575;SDS011;3829;50.798;4.358;2022-08-01T13:37:08;1.47;;;1.30;;
7575;SDS011;3829;50.798;4.358;2022-08-01T13:39:34;2.47;;;1.10;;
7575;SDS011;3829;50.798;4.358;2022-08-01T13:42:09;6.23;;;1.27;;
7575;SDS011;3829;50.798;4.358;2022-08-01T13:44:41;1.87;;;1.43;;
7575;SDS011;3829;50.798;4.358;2022-08-01T13:47:10;4.40;;;1.20;;
7575;SDS011;3829;50.798;4.358;2022-08-01T13:49:35;2.70;;;1.13;;
7575;SDS011;3829;50.798;4.358;2022-08-01T13:52:01;2.47;;;1.20;;
7575;SDS011;3829;50.798;4.358;2022-08-01T13:54:27;4.93;;;1.30;;
7575;SDS011;3829;50.798;4.358;2022-08-01T13:56:53;4.90;;;1.07;;
7575;SDS011;3829;50.798;4.358;2022-08-01T13:59:19;2.17;;;1.20;;
7575;SDS011;3829;50.798;4.358;2022-08-01T14:01:45;4.30;;;1.10;;
7575;SDS011;3829;50.798;4.358;2022-08-01T14:04:11;1.87;;;1.00;;
7575;SDS011;3829;50.798;4.358;2022-08-01T14:06:37;3.80;;;1.03;;
7575;SDS011;3829;50.798;4.358;2022-08-01T14:09:03;1.83;;;1.03;;
7575;SDS011;3829;50.798;4.358;2022-08-01T14:11:29;5.93;;;2.03;;
7575;SDS011;3829;50.798;4.358;2022-08-01T14:13:54;3.70;;;1.17;;
7575;SDS011;3829;50.798;4.358;2022-08-01T14:16:20;2.40;;;1.10;;
7575;SDS011;3829;50.798;4.358;2022-08-01T14:18:46;2.93;;;0.90;;
7575;SDS011;3829;50.798;4.358;2022-08-01T14:21:11;1.27;;;1.00;;
7575;SDS011;3829;50.798;4.358;2022-08-01T14:23:37;1.83;;;1.10;;
7575;SDS011;3829;50.798;4.358;2022-08-01T14:26:03;2.23;;;1.37;;
7575;SDS011;3829;50.798;4.358;2022-08-01T14:28:28;1.20;;;1.10;;
7575;SDS011;3829;50.798;4.358;2022-08-01T14:30:55;6.50;;;1.30;;
7575;SDS011;3829;50.798;4.358;2022-08-01T14:33:22;1.80;;;1.00;;
7575;SDS011;3829;50.798;4.358;2022-08-01T14:35:48;1.87;;;0.90;;
7575;SDS011;3829;50.798;4.358;2022-08-01T14:38:14;1.10;;;0.90;;
7575;SDS011;3829;50.798;4.358;2022-08-01T14:40:39;3.07;;;1.10;;
7575;SDS011;3829;50.798;4.358;2022-08-01T14:43:05;2.33;;;0.90;;
7575;SDS011;3829;50.798;4.358;2022-08-01T14:45:31;2.30;;;1.27;;
7575;SDS011;3829;50.798;4.358;2022-08-01T14:47:58;2.20;;;1.13;;
7575;SDS011;3829;50.798;4.358;2022-08-01T14:50:24;2.93;;;0.90;;
7575;SDS011;3829;50.798;4.358;2022-08-01T14:52:51;2.70;;;0.93;;
7575;SDS011;3829;50.798;4.358;2022-08-01T14:55:18;2.17;;;1.33;;
7575;SDS011;3829;50.798;4.358;2022-08-01T14:57:46;3.00;;;1.00;;
7575;SDS011;3829;50.798;4.358;2022-08-01T15:00:12;2.97;;;1.00;;
7575;SDS011;3829;50.798;4.358;2022-08-01T15:02:38;1.47;;;1.23;;
7575;SDS011;3829;50.798;4.358;2022-08-01T15:05:04;1.67;;;1.00;;
7575;SDS011;3829;50.798;4.358;2022-08-01T15:07:31;3.67;;;0.90;;
7575;SDS011;3829;50.798;4.358;2022-08-01T15:09:57;1.40;;;1.00;;
7575;SDS011;3829;50.798;4.358;2022-08-01T15:12:22;3.40;;;1.23;;
7575;SDS011;3829;50.798;4.358;2022-08-01T15:14:48;1.70;;;1.10;;
7575;SDS011;3829;50.798;4.358;2022-08-01T15:17:18;3.50;;;0.97;;
7575;SDS011;3829;50.798;4.358;2022-08-01T15:19:47;1.77;;;1.07;;
7575;SDS011;3829;50.798;4.358;2022-08-01T15:22:14;3.20;;;1.00;;
7575;SDS011;3829;50.798;4.358;2022-08-01T15:24:40;1.90;;;1.00;;
7575;SDS011;3829;50.798;4.358;2022-08-01T15:27:06;4.07;;;1.00;;
7575;SDS011;3829;50.798;4.358;2022-08-01T15:29:33;2.10;;;1.10;;
7575;SDS011;3829;50.798;4.358;2022-08-01T15:31:59;2.40;;;1.00;;
7575;SDS011;3829;50.798;4.358;2022-08-01T15:34:25;2.43;;;0.97;;
7575;SDS011;3829;50.798;4.358;2022-08-01T15:36:51;2.40;;;0.90;;
7575;SDS011;3829;50.798;4.358;2022-08-01T15:39:17;1.40;;;1.00;;
7575;SDS011;3829;50.798;4.358;2022-08-01T15:41:42;0.97;;;0.77;;
7575;SDS011;3829;50.798;4.358;2022-08-01T15:44:08;1.13;;;0.93;;
7575;SDS011;3829;50.798;4.358;2022-08-01T15:46:34;1.10;;;0.77;;
7575;SDS011;3829;50.798;4.358;2022-08-01T15:49:03;2.27;;;0.97;;
7575;SDS011;3829;50.798;4.358;2022-08-01T15:51:31;2.03;;;0.80;;
7575;SDS011;3829;50.798;4.358;2022-08-01T15:53:57;1.60;;;0.70;;
7575;SDS011;3829;50.798;4.358;2022-08-01T15:56:27;1.53;;;1.00;;
7575;SDS011;3829;50.798;4.358;2022-08-01T15:58:56;1.87;;;1.13;;
7575;SDS011;3829;50.798;4.358;2022-08-01T16:01:22;1.53;;;0.90;;
7575;SDS011;3829;50.798;4.358;2022-08-01T16:03:47;2.00;;;0.90;;
7575;SDS011;3829;50.798;4.358;2022-08-01T16:06:14;0.83;;;0.80;;
7575;SDS011;3829;50.798;4.358;2022-08-01T16:08:40;1.40;;;0.87;;
7575;SDS011;3829;50.798;4.358;2022-08-01T16:11:05;5.37;;;0.80;;
7575;SDS011;3829;50.798;4.358;2022-08-01T16:13:31;2.93;;;0.90;;
7575;SDS011;3829;50.798;4.358;2022-08-01T16:15:57;0.70;;;0.70;;
7575;SDS011;3829;50.798;4.358;2022-08-01T16:18:23;1.83;;;0.90;;
7575;SDS011;3829;50.798;4.358;2022-08-01T16:20:49;4.07;;;0.97;;
7575;SDS011;3829;50.798;4.358;2022-08-01T16:23:15;2.50;;;0.93;;
7575;SDS011;3829;50.798;4.358;2022-08-01T16:25:41;2.27;;;0.97;;